Time;durP1;ratioP1;P1;durP2;ratioP2;P2;SDS_P1;SDS_P2;PMS_P1;PMS_P2;Temp;Humidity;BMP_temperature;BMP_pressure;BME280_temperature;BME280_humidity;BME280_pressure;Samples;Min_cycle;Max_cycle;Signal;HPM_P1;HPM_P2
2022/05/01 00:00:51;;;;;;;;;;;4.10;99.90;;;;;;5064158;28;19924;-77
2022/05/01 00:03:31;;;;;;;;;;;4.10;99.90;;;;;;5055493;28;19935;-77
2022/05/01 00:05:58;;;;;;;;;;;4.10;99.90;;;;;;5064119;28;19924;-77
2022/05/01 00:08:24;;;;;;;;;;;4.10;99.90;;;;;;5065955;28;19959;-77
2022/05/01 00:10:49;;;;;;;;;;;4.10;99.90;;;;;;5054872;28;20410;-77
2022/05/01 00:13:17;;;;;;;;;;;4.00;99.90;;;;;;5059408;28;19925;-77
2022/05/01 00:15:43;;;;;;;;;;;4.00;99.90;;;;;;5062555;28;19947;-77
2022/05/01 00:18:08;;;;;;;;;;;4.00;99.90;;;;;;5057775;28;19921;-78
2022/05/01 00:20:35;;;;;;;;;;;4.00;99.90;;;;;;5062244;28;19924;-77
2022/05/01 00:23:00;;;;;;;;;;;4.00;99.90;;;;;;5057635;28;20492;-77
2022/05/01 00:25:26;;;;;;;;;;;3.90;99.90;;;;;;5059033;28;19924;-76
2022/05/01 00:27:52;;;;;;;;;;;3.90;99.90;;;;;;5063229;28;19928;-76
2022/05/01 00:30:17;;;;;;;;;;;3.90;99.90;;;;;;5052439;28;19925;-77
2022/05/01 00:38:11;;;;;;;;;;;3.80;99.90;;;;;;5057136;28;19924;-77
2022/05/01 00:40:37;;;;;;;;;;;3.80;99.90;;;;;;5074121;28;20458;-77
2022/05/01 00:43:03;;;;;;;;;;;3.80;99.90;;;;;;5067944;28;19946;-77
2022/05/01 00:45:29;;;;;;;;;;;3.80;99.90;;;;;;5074975;28;20019;-77
2022/05/01 00:47:55;;;;;;;;;;;3.70;99.90;;;;;;5074062;28;19920;-77
2022/05/01 00:50:20;;;;;;;;;;;3.70;99.90;;;;;;5060185;28;20075;-77
2022/05/01 00:52:46;;;;;;;;;;;3.70;99.90;;;;;;5054376;28;19921;-77
2022/05/01 00:55:12;;;;;;;;;;;3.70;99.90;;;;;;5052701;28;19973;-77
2022/05/01 00:57:37;;;;;;;;;;;3.80;99.90;;;;;;5052672;28;19929;-77
2022/05/01 01:00:04;;;;;;;;;;;3.80;99.90;;;;;;5052859;28;19921;-77
2022/05/01 01:02:31;;;;;;;;;;;3.80;99.90;;;;;;5053635;28;20454;-77
2022/05/01 01:04:56;;;;;;;;;;;3.80;99.90;;;;;;5054373;28;19920;-77
2022/05/01 01:07:24;;;;;;;;;;;3.80;99.90;;;;;;5052505;28;19921;-77
2022/05/01 01:09:49;;;;;;;;;;;3.70;99.90;;;;;;5052389;28;19982;-77
2022/05/01 01:15:09;;;;;;;;;;;3.60;99.90;;;;;;5051529;28;19921;-77
2022/05/01 01:17:42;;;;;;;;;;;3.60;99.90;;;;;;5053864;28;19927;-77
2022/05/01 01:20:27;;;;;;;;;;;3.50;99.90;;;;;;5052450;28;19920;-77
2022/05/01 01:22:54;;;;;;;;;;;3.50;99.90;;;;;;5048077;28;19928;-77
2022/05/01 01:25:22;;;;;;;;;;;3.50;99.90;;;;;;5043728;28;19925;-77
2022/05/01 01:27:51;;;;;;;;;;;3.80;99.90;;;;;;5052411;28;19984;-77
2022/05/01 01:33:02;;;;;;;;;;;3.30;99.90;;;;;;5052234;28;19925;-77
2022/05/01 01:35:29;;;;;;;;;;;3.30;99.90;;;;;;5052567;28;19971;-77
2022/05/01 01:37:55;;;;;;;;;;;3.20;99.90;;;;;;5053133;28;20295;-77
2022/05/01 01:40:21;;;;;;;;;;;3.20;99.90;;;;;;5051572;28;19971;-77
2022/05/01 01:42:52;;;;;;;;;;;3.20;99.90;;;;;;5053467;28;20351;-77
2022/05/01 01:45:18;;;;;;;;;;;3.10;99.90;;;;;;5052295;28;19920;-77
2022/05/01 01:47:44;;;;;;;;;;;3.10;99.90;;;;;;5052239;28;20418;-77
2022/05/01 01:50:13;;;;;;;;;;;3.10;99.90;;;;;;5052691;28;19975;-77
2022/05/01 01:52:38;;;;;;;;;;;3.10;99.90;;;;;;5052582;28;20322;-77
2022/05/01 01:55:04;;;;;;;;;;;3.00;99.90;;;;;;5052775;28;19966;-77
2022/05/01 01:57:30;;;;;;;;;;;3.00;99.90;;;;;;5051576;28;20428;-77
2022/05/01 01:59:55;;;;;;;;;;;2.90;99.90;;;;;;5053377;28;19967;-77
2022/05/01 02:02:21;;;;;;;;;;;2.90;99.90;;;;;;5053270;28;19925;-77
2022/05/01 02:04:46;;;;;;;;;;;2.90;99.90;;;;;;5051130;28;19921;-77
2022/05/01 02:07:12;;;;;;;;;;;2.90;99.90;;;;;;5052957;28;19921;-77
2022/05/01 02:09:38;;;;;;;;;;;2.90;99.90;;;;;;5052987;28;19925;-78
2022/05/01 02:12:08;;;;;;;;;;;2.80;99.90;;;;;;5052562;28;19921;-78
2022/05/01 02:14:36;;;;;;;;;;;2.80;99.90;;;;;;5052596;28;19921;-78
2022/05/01 02:17:05;;;;;;;;;;;2.80;99.90;;;;;;5051663;28;19930;-77
2022/05/01 02:19:30;;;;;;;;;;;2.70;99.90;;;;;;5052344;28;19928;-77
2022/05/01 02:21:56;;;;;;;;;;;2.80;99.90;;;;;;5051783;28;19924;-77
2022/05/01 02:24:25;;;;;;;;;;;2.70;99.90;;;;;;5051461;28;19975;-77
2022/05/01 02:26:50;;;;;;;;;;;2.80;99.90;;;;;;5052056;28;20438;-77
2022/05/01 02:29:16;;;;;;;;;;;2.80;99.90;;;;;;5052648;28;19920;-77
2022/05/01 02:31:43;;;;;;;;;;;2.80;99.90;;;;;;5052701;28;19931;-77
2022/05/01 02:34:09;;;;;;;;;;;2.70;99.90;;;;;;5050615;28;19975;-77
2022/05/01 02:36:35;;;;;;;;;;;2.70;99.90;;;;;;5052685;28;20011;-78
2022/05/01 02:39:00;;;;;;;;;;;2.70;99.90;;;;;;5051004;28;20028;-77
2022/05/01 02:41:26;;;;;;;;;;;2.70;99.90;;;;;;5050803;28;20318;-78
2022/05/01 02:43:53;;;;;;;;;;;2.70;99.90;;;;;;5052706;28;19947;-77
2022/05/01 02:46:19;;;;;;;;;;;2.70;99.90;;;;;;5050726;28;20361;-77
2022/05/01 02:48:45;;;;;;;;;;;2.70;99.90;;;;;;5052790;28;19921;-77
2022/05/01 02:51:10;;;;;;;;;;;2.60;99.90;;;;;;5051005;28;19925;-77
2022/05/01 02:53:36;;;;;;;;;;;2.60;99.90;;;;;;5050901;28;20292;-77
2022/05/01 02:56:02;;;;;;;;;;;2.50;99.90;;;;;;5051910;28;20031;-78
2022/05/01 02:58:28;;;;;;;;;;;2.50;99.90;;;;;;5051373;28;19917;-78
2022/05/01 03:00:53;;;;;;;;;;;2.40;99.90;;;;;;5050863;28;20402;-77
2022/05/01 03:03:19;;;;;;;;;;;2.40;99.90;;;;;;5052145;28;19924;-78
2022/05/01 03:05:44;;;;;;;;;;;2.40;99.90;;;;;;5051216;28;19988;-78
2022/05/01 03:08:12;;;;;;;;;;;2.40;99.90;;;;;;5051339;28;20338;-77
2022/05/01 03:10:38;;;;;;;;;;;2.40;99.90;;;;;;5050973;28;20390;-78
2022/05/01 03:13:04;;;;;;;;;;;2.40;99.90;;;;;;5051997;28;20364;-78
2022/05/01 03:15:29;;;;;;;;;;;2.40;99.90;;;;;;5051980;28;19928;-78
2022/05/01 03:23:23;;;;;;;;;;;2.40;99.90;;;;;;5051491;28;19920;-77
2022/05/01 03:25:48;;;;;;;;;;;2.40;99.90;;;;;;5050813;28;20361;-77
2022/05/01 03:28:14;;;;;;;;;;;3.00;99.90;;;;;;5050711;28;19928;-77
2022/05/01 03:30:39;;;;;;;;;;;2.30;99.90;;;;;;5052112;28;19967;-77
2022/05/01 03:33:07;;;;;;;;;;;2.30;99.90;;;;;;5051992;28;19920;-77
2022/05/01 03:35:35;;;;;;;;;;;2.30;99.90;;;;;;5050461;28;20015;-77
2022/05/01 03:38:04;;;;;;;;;;;2.30;99.90;;;;;;5054448;28;19970;-77
2022/05/01 03:40:30;;;;;;;;;;;2.30;99.90;;;;;;5055892;28;19920;-77
2022/05/01 03:42:55;;;;;;;;;;;2.30;99.90;;;;;;5054135;28;20288;-77
2022/05/01 03:45:21;;;;;;;;;;;2.30;99.90;;;;;;5054537;28;19927;-77
2022/05/01 03:47:46;;;;;;;;;;;2.30;99.90;;;;;;5055772;28;20325;-77
2022/05/01 03:50:12;;;;;;;;;;;2.30;99.90;;;;;;5055006;28;19920;-77
2022/05/01 03:52:37;;;;;;;;;;;2.20;99.90;;;;;;5054241;28;20434;-77
2022/05/01 03:55:03;;;;;;;;;;;2.20;99.90;;;;;;5053601;28;20063;-77
2022/05/01 03:57:29;;;;;;;;;;;2.20;99.90;;;;;;5054952;28;20299;-77
2022/05/01 03:59:54;;;;;;;;;;;2.20;99.90;;;;;;5054447;28;20287;-77
2022/05/01 04:02:20;;;;;;;;;;;2.20;99.90;;;;;;5054882;28;20389;-77
2022/05/01 04:04:47;;;;;;;;;;;2.10;99.90;;;;;;5054890;28;19920;-77
2022/05/01 04:07:13;;;;;;;;;;;2.10;99.90;;;;;;5055194;28;19921;-77
2022/05/01 04:09:39;;;;;;;;;;;2.00;99.90;;;;;;5053863;28;20260;-77
2022/05/01 04:12:05;;;;;;;;;;;2.00;99.90;;;;;;5054439;28;20345;-77
2022/05/01 04:14:30;;;;;;;;;;;2.00;99.90;;;;;;5053839;28;19921;-77
2022/05/01 04:17:00;;;;;;;;;;;2.00;99.90;;;;;;5055017;28;19921;-77
2022/05/01 04:19:26;;;;;;;;;;;2.00;99.90;;;;;;5053203;28;19920;-77
2022/05/01 04:21:51;;;;;;;;;;;1.90;99.90;;;;;;5055213;28;20092;-77
2022/05/01 04:24:17;;;;;;;;;;;2.00;99.90;;;;;;5052878;28;19921;-77
2022/05/01 04:26:42;;;;;;;;;;;1.90;99.90;;;;;;5053310;28;19927;-77
2022/05/01 04:31:51;;;;;;;;;;;1.90;99.90;;;;;;5052930;28;19982;-77
2022/05/01 04:34:17;;;;;;;;;;;1.80;99.90;;;;;;5053351;28;20364;-77
2022/05/01 04:36:43;;;;;;;;;;;1.80;99.90;;;;;;5054551;28;19982;-77
2022/05/01 04:39:08;;;;;;;;;;;1.80;99.90;;;;;;5053478;28;19928;-77
2022/05/01 04:41:34;;;;;;;;;;;1.90;99.90;;;;;;5052193;28;20007;-77
2022/05/01 04:44:00;;;;;;;;;;;1.90;99.90;;;;;;5052833;28;19928;-77
2022/05/01 04:46:25;;;;;;;;;;;2.00;99.90;;;;;;5053175;28;19925;-77
2022/05/01 04:48:51;;;;;;;;;;;2.00;99.90;;;;;;5052920;28;19927;-77
2022/05/01 04:51:16;;;;;;;;;;;2.10;99.90;;;;;;5052243;28;19920;-77
2022/05/01 04:53:42;;;;;;;;;;;2.20;99.90;;;;;;5052785;28;19921;-77
2022/05/01 04:58:52;;;;;;;;;;;2.30;99.90;;;;;;5054764;28;19921;-78
2022/05/01 05:01:19;;;;;;;;;;;2.40;99.90;;;;;;5053505;28;19962;-78
2022/05/01 05:03:45;;;;;;;;;;;2.50;99.90;;;;;;5054493;28;19927;-78
2022/05/01 05:06:10;;;;;;;;;;;2.50;99.90;;;;;;5054332;28;19921;-78
2022/05/01 05:11:20;;;;;;;;;;;2.60;99.90;;;;;;5052606;28;19921;-78
2022/05/01 05:13:45;;;;;;;;;;;2.60;99.90;;;;;;5053188;28;19927;-78
2022/05/01 05:16:13;;;;;;;;;;;2.70;99.90;;;;;;5051827;28;20326;-78
2022/05/01 05:18:40;;;;;;;;;;;2.80;99.90;;;;;;5054086;28;19921;-78
2022/05/01 05:21:05;;;;;;;;;;;2.90;99.90;;;;;;5052947;28;19925;-78
2022/05/01 05:23:31;;;;;;;;;;;2.90;99.90;;;;;;5052603;28;19943;-78
2022/05/01 05:25:56;;;;;;;;;;;3.00;99.90;;;;;;5052713;28;19921;-78
2022/05/01 05:28:22;;;;;;;;;;;3.00;99.90;;;;;;5051780;28;19955;-78
2022/05/01 05:30:48;;;;;;;;;;;3.10;99.90;;;;;;5054099;28;19921;-78
2022/05/01 05:33:14;;;;;;;;;;;3.20;99.90;;;;;;5052296;28;19971;-78
2022/05/01 05:35:40;;;;;;;;;;;3.20;99.90;;;;;;5052462;28;19967;-78
2022/05/01 05:38:06;;;;;;;;;;;3.40;99.90;;;;;;5053599;28;20352;-78
2022/05/01 05:40:31;;;;;;;;;;;3.40;99.90;;;;;;5053970;28;19983;-78
2022/05/01 05:42:57;;;;;;;;;;;3.50;99.90;;;;;;5053398;28;19982;-78
2022/05/01 05:45:22;;;;;;;;;;;3.60;99.90;;;;;;5050008;28;19921;-78
2022/05/01 05:47:48;;;;;;;;;;;3.70;99.90;;;;;;5050121;28;19960;-78
2022/05/01 05:50:13;;;;;;;;;;;3.80;99.90;;;;;;5050961;28;19974;-78
2022/05/01 05:52:39;;;;;;;;;;;3.90;99.90;;;;;;5051995;28;19920;-78
2022/05/01 05:55:05;;;;;;;;;;;4.00;99.90;;;;;;5053270;28;19924;-78
2022/05/01 05:57:30;;;;;;;;;;;4.10;99.90;;;;;;5051029;28;19955;-77
2022/05/01 05:59:56;;;;;;;;;;;4.10;99.90;;;;;;5050648;28;19921;-78
2022/05/01 06:02:21;;;;;;;;;;;4.20;99.90;;;;;;5052704;28;20039;-78
2022/05/01 06:04:47;;;;;;;;;;;4.30;99.90;;;;;;5051170;28;19920;-79
2022/05/01 06:07:12;;;;;;;;;;;4.40;99.90;;;;;;5050657;28;19920;-78
2022/05/01 06:09:38;;;;;;;;;;;4.50;99.90;;;;;;5050315;28;20372;-78
2022/05/01 06:12:09;;;;;;;;;;;4.60;99.90;;;;;;5049179;28;19928;-79
2022/05/01 06:14:35;;;;;;;;;;;4.70;99.90;;;;;;5051924;28;19920;-78
2022/05/01 06:17:00;;;;;;;;;;;4.80;99.90;;;;;;5051374;28;19978;-79
2022/05/01 06:19:26;;;;;;;;;;;4.90;99.90;;;;;;5051427;28;19916;-78
2022/05/01 06:21:51;;;;;;;;;;;5.10;99.90;;;;;;5051601;28;19925;-78
2022/05/01 06:24:17;;;;;;;;;;;5.20;99.90;;;;;;5051166;28;20360;-79
2022/05/01 06:26:42;;;;;;;;;;;5.40;99.90;;;;;;5051574;28;19947;-78
2022/05/01 06:29:08;;;;;;;;;;;5.50;99.90;;;;;;5051055;28;19967;-78
2022/05/01 06:31:35;;;;;;;;;;;5.60;99.90;;;;;;5050854;28;19920;-78
2022/05/01 06:34:00;;;;;;;;;;;5.70;99.90;;;;;;5052662;28;19982;-78
2022/05/01 06:36:26;;;;;;;;;;;5.90;99.90;;;;;;5051965;28;19921;-78
2022/05/01 06:38:51;;;;;;;;;;;6.00;99.90;;;;;;5050767;28;20383;-79
2022/05/01 06:41:17;;;;;;;;;;;6.20;99.90;;;;;;5052346;28;19979;-77
2022/05/01 06:43:43;;;;;;;;;;;6.30;99.90;;;;;;5051344;28;19921;-78
2022/05/01 06:46:08;;;;;;;;;;;6.40;99.90;;;;;;5051710;28;19925;-77
2022/05/01 06:48:34;;;;;;;;;;;6.60;99.90;;;;;;5051252;28;20360;-77
2022/05/01 06:51:00;;;;;;;;;;;6.70;99.90;;;;;;5050980;28;19925;-78
2022/05/01 06:53:25;;;;;;;;;;;6.80;99.90;;;;;;5050989;28;19928;-78
2022/05/01 06:55:53;;;;;;;;;;;7.00;99.90;;;;;;5051758;28;19921;-77
2022/05/01 06:58:19;;;;;;;;;;;7.10;99.90;;;;;;5054632;28;19925;-78
2022/05/01 07:00:45;;;;;;;;;;;7.30;99.90;;;;;;5056881;28;19928;-78
2022/05/01 07:03:11;;;;;;;;;;;7.40;99.90;;;;;;5052177;28;20327;-78
2022/05/01 07:05:36;;;;;;;;;;;7.60;99.90;;;;;;5051344;28;19921;-79
2022/05/01 07:08:02;;;;;;;;;;;7.70;99.90;;;;;;5050209;28;19921;-78
2022/05/01 07:10:27;;;;;;;;;;;7.90;99.90;;;;;;5053931;28;19927;-78
2022/05/01 07:12:53;;;;;;;;;;;8.70;99.90;;;;;;5066241;28;20291;-78
2022/05/01 07:15:19;;;;;;;;;;;8.20;99.90;;;;;;5070345;28;20025;-79
2022/05/01 07:17:44;;;;;;;;;;;8.40;99.90;;;;;;5075357;28;19924;-79
2022/05/01 07:20:10;;;;;;;;;;;8.50;99.90;;;;;;5074929;28;19921;-78
2022/05/01 07:22:36;;;;;;;;;;;8.80;99.90;;;;;;5074442;28;19920;-79
2022/05/01 07:25:01;;;;;;;;;;;9.00;99.90;;;;;;5074695;28;19982;-77
2022/05/01 07:27:27;;;;;;;;;;;9.20;99.90;;;;;;5066533;28;19928;-77
2022/05/01 07:29:58;;;;;;;;;;;9.40;99.90;;;;;;5054310;28;19921;-76
2022/05/01 07:32:24;;;;;;;;;;;10.90;99.90;;;;;;5055154;28;20341;-78
2022/05/01 07:34:50;;;;;;;;;;;10.50;99.90;;;;;;5053767;28;20015;-77
2022/05/01 07:37:16;;;;;;;;;;;11.40;99.90;;;;;;5055919;28;19921;-71
2022/05/01 07:39:42;;;;;;;;;;;12.10;99.90;;;;;;5054787;28;19929;-71
2022/05/01 07:42:08;;;;;;;;;;;12.90;99.90;;;;;;5055352;28;19928;-72
2022/05/01 07:44:33;;;;;;;;;;;13.80;99.90;;;;;;5054272;28;19924;-71
2022/05/01 07:46:59;;;;;;;;;;;14.40;99.90;;;;;;5053584;28;19920;-72
2022/05/01 07:49:25;;;;;;;;;;;14.60;99.90;;;;;;5054006;28;19920;-71
2022/05/01 07:51:50;;;;;;;;;;;14.50;99.90;;;;;;5054402;28;20318;-70
2022/05/01 07:54:16;;;;;;;;;;;14.40;99.90;;;;;;5054040;28;20372;-76
2022/05/01 07:56:41;;;;;;;;;;;14.50;99.90;;;;;;5055152;28;19928;-75
2022/05/01 07:59:08;;;;;;;;;;;14.50;99.90;;;;;;5055115;28;19928;-77
2022/05/01 08:01:34;;;;;;;;;;;14.90;99.90;;;;;;5055375;28;19927;-78
2022/05/01 08:06:44;;;;;;;;;;;15.50;99.60;;;;;;5054025;28;19971;-73
2022/05/01 08:09:09;;;;;;;;;;;16.10;98.30;;;;;;5055022;28;19921;-75
2022/05/01 08:11:35;;;;;;;;;;;15.90;98.20;;;;;;5053450;28;20188;-72
2022/05/01 08:14:01;;;;;;;;;;;16.80;99.50;;;;;;5053748;28;19967;-81
2022/05/01 08:16:26;;;;;;;;;;;17.10;96.40;;;;;;5053734;28;19917;-73
2022/05/01 08:21:36;;;;;;;;;;;17.20;95.50;;;;;;5053393;28;19916;-75
2022/05/01 08:24:02;;;;;;;;;;;17.10;94.00;;;;;;5052923;28;19986;-76
2022/05/01 08:26:31;;;;;;;;;;;16.60;94.80;;;;;;5055311;28;19920;-78
2022/05/01 08:28:57;;;;;;;;;;;16.40;94.10;;;;;;5054710;28;20407;-77
2022/05/01 08:31:22;;;;;;;;;;;16.10;94.20;;;;;;5054176;28;19920;-79
2022/05/01 08:33:48;;;;;;;;;;;15.50;94.40;;;;;;5052196;28;19920;-77
2022/05/01 08:36:13;;;;;;;;;;;15.00;95.60;;;;;;5050563;28;19951;-74
2022/05/01 08:38:39;;;;;;;;;;;14.70;95.20;;;;;;5052406;28;19928;-74
2022/05/01 08:41:06;;;;;;;;;;;14.80;96.80;;;;;;5052592;28;20364;-73
2022/05/01 08:43:32;;;;;;;;;;;15.70;97.40;;;;;;5054003;28;20007;-73
2022/05/01 08:46:03;;;;;;;;;;;16.80;93.70;;;;;;5053188;28;20391;-72
2022/05/01 08:48:36;;;;;;;;;;;18.20;93.40;;;;;;5053211;28;20292;-73
2022/05/01 08:51:02;;;;;;;;;;;19.60;93.30;;;;;;5052376;28;19921;-72
2022/05/01 08:53:29;;;;;;;;;;;20.10;90.00;;;;;;5052937;28;19928;-74
2022/05/01 08:55:55;;;;;;;;;;;19.80;89.00;;;;;;5054530;28;19920;-74
2022/05/01 08:58:21;;;;;;;;;;;19.40;89.20;;;;;;5052664;28;20402;-74
2022/05/01 09:00:46;;;;;;;;;;;19.00;86.80;;;;;;5054235;28;19975;-74
2022/05/01 09:03:12;;;;;;;;;;;18.40;88.30;;;;;;5052700;28;19946;-80
2022/05/01 09:05:39;;;;;;;;;;;18.10;90.30;;;;;;5053531;28;19927;-77
2022/05/01 09:08:05;;;;;;;;;;;18.00;89.70;;;;;;5052221;28;20021;-77
2022/05/01 09:10:31;;;;;;;;;;;18.10;88.30;;;;;;5052979;28;20375;-76
2022/05/01 09:12:57;;;;;;;;;;;18.20;90.80;;;;;;5054057;28;20018;-73
2022/05/01 09:15:29;;;;;;;;;;;18.30;90.60;;;;;;5053678;28;19972;-70
2022/05/01 09:17:59;;;;;;;;;;;18.70;90.50;;;;;;5053700;28;19921;-69
2022/05/01 09:20:25;;;;;;;;;;;19.20;90.00;;;;;;5053862;28;20019;-69
2022/05/01 09:22:52;;;;;;;;;;;19.20;89.20;;;;;;5052770;28;20074;-72
2022/05/01 09:25:19;;;;;;;;;;;19.00;86.40;;;;;;5052427;28;19925;-71
2022/05/01 09:27:44;;;;;;;;;;;18.50;88.10;;;;;;5052251;28;19921;-70
2022/05/01 09:30:18;;;;;;;;;;;18.00;90.40;;;;;;5052304;28;20323;-71
2022/05/01 09:32:44;;;;;;;;;;;17.60;91.00;;;;;;5052466;28;19974;-71
2022/05/01 09:35:26;;;;;;;;;;;17.30;90.70;;;;;;5051466;28;19916;-71
2022/05/01 09:38:08;;;;;;;;;;;17.30;90.20;;;;;;5052224;28;19921;-71
2022/05/01 09:40:33;;;;;;;;;;;17.30;90.50;;;;;;5052864;28;19916;-71
2022/05/01 09:42:59;;;;;;;;;;;16.80;91.50;;;;;;5051098;28;20446;-70
2022/05/01 09:45:34;;;;;;;;;;;16.40;91.90;;;;;;5052724;28;19928;-71
2022/05/01 09:47:59;;;;;;;;;;;16.10;92.70;;;;;;5052769;28;19927;-71
2022/05/01 09:50:42;;;;;;;;;;;16.40;92.90;;;;;;5051544;28;19924;-71
2022/05/01 09:53:08;;;;;;;;;;;15.70;93.20;;;;;;5057722;28;19943;-71
2022/05/01 09:55:33;;;;;;;;;;;15.60;93.60;;;;;;5058026;28;20364;-70
2022/05/01 09:58:03;;;;;;;;;;;15.50;93.60;;;;;;5053177;28;19920;-71
2022/05/01 10:00:58;;;;;;;;;;;15.60;94.60;;;;;;5052797;28;20287;-71
2022/05/01 10:03:25;;;;;;;;;;;15.90;94.00;;;;;;5037388;28;19974;-72
2022/05/01 10:05:51;;;;;;;;;;;16.40;92.40;;;;;;5066362;28;19921;-71
2022/05/01 10:08:20;;;;;;;;;;;17.10;93.60;;;;;;5069321;28;20341;-71
2022/05/01 10:10:47;;;;;;;;;;;17.80;93.50;;;;;;5069162;28;19920;-71
2022/05/01 10:13:13;;;;;;;;;;;18.40;91.50;;;;;;5069823;28;19924;-71
2022/05/01 10:15:39;;;;;;;;;;;19.20;90.00;;;;;;5071213;28;19970;-71
2022/05/01 10:18:04;;;;;;;;;;;20.00;89.60;;;;;;5072323;28;19920;-71
2022/05/01 10:20:30;;;;;;;;;;;21.00;86.10;;;;;;5055015;28;20326;-71
2022/05/01 10:22:56;;;;;;;;;;;21.70;83.30;;;;;;5051222;28;19920;-72
2022/05/01 10:25:22;;;;;;;;;;;22.10;78.60;;;;;;5049202;28;20366;-71
2022/05/01 10:27:53;;;;;;;;;;;21.80;77.20;;;;;;5049977;28;20411;-71
2022/05/01 10:33:19;;;;;;;;;;;20.50;75.90;;;;;;5050929;28;19925;-71
2022/05/01 10:36:07;;;;;;;;;;;19.80;79.40;;;;;;5049853;28;19929;-72
2022/05/01 10:38:39;;;;;;;;;;;19.80;76.80;;;;;;5049195;28;19921;-71
2022/05/01 10:41:07;;;;;;;;;;;20.00;76.80;;;;;;5049137;28;19928;-71
2022/05/01 10:43:35;;;;;;;;;;;20.10;77.70;;;;;;5051534;28;19924;-71
2022/05/01 10:46:02;;;;;;;;;;;19.80;77.40;;;;;;5049687;28;20178;-71
2022/05/01 10:48:29;;;;;;;;;;;20.20;74.80;;;;;;5051496;28;19921;-71
2022/05/01 10:50:54;;;;;;;;;;;20.40;76.70;;;;;;5050900;28;20379;-72
2022/05/01 10:53:20;;;;;;;;;;;21.50;74.70;;;;;;5050445;28;19950;-71
2022/05/01 10:55:48;;;;;;;;;;;21.00;74.40;;;;;;5052463;28;19921;-72
2022/05/01 10:58:27;;;;;;;;;;;21.00;72.80;;;;;;5051241;28;19986;-72
2022/05/01 11:00:56;;;;;;;;;;;21.10;73.80;;;;;;5051997;28;20058;-72
2022/05/01 11:03:26;;;;;;;;;;;20.90;71.70;;;;;;5052199;28;19921;-72
2022/05/01 11:05:55;;;;;;;;;;;21.20;71.50;;;;;;5051867;28;19921;-72
2022/05/01 11:08:27;;;;;;;;;;;20.70;72.70;;;;;;5051046;28;19927;-70
2022/05/01 11:10:54;;;;;;;;;;;20.80;71.40;;;;;;5051118;28;20400;-69
2022/05/01 11:13:20;;;;;;;;;;;21.30;74.70;;;;;;5051639;28;19921;-70
2022/05/01 11:15:47;;;;;;;;;;;21.50;70.70;;;;;;5051136;28;20387;-70
2022/05/01 11:18:13;;;;;;;;;;;21.70;70.00;;;;;;5050837;28;19924;-70
2022/05/01 11:20:39;;;;;;;;;;;22.50;74.10;;;;;;5051781;28;19947;-71
2022/05/01 11:23:23;;;;;;;;;;;22.40;69.60;;;;;;5050731;28;19967;-72
2022/05/01 11:25:48;;;;;;;;;;;22.40;68.00;;;;;;5051024;28;19927;-71
2022/05/01 11:28:33;;;;;;;;;;;22.00;70.40;;;;;;5050225;28;19916;-72
2022/05/01 11:30:58;;;;;;;;;;;21.90;68.20;;;;;;5050767;28;19975;-71
2022/05/01 11:33:24;;;;;;;;;;;22.40;72.70;;;;;;5050990;28;19964;-72
2022/05/01 11:35:58;;;;;;;;;;;22.60;66.90;;;;;;5051709;28;19968;-72
2022/05/01 11:38:39;;;;;;;;;;;22.00;67.40;;;;;;5051998;28;19921;-72
2022/05/01 11:41:06;;;;;;;;;;;21.50;69.00;;;;;;5050268;28;19920;-71
2022/05/01 11:43:32;;;;;;;;;;;21.20;70.50;;;;;;5052472;28;19955;-72
2022/05/01 11:45:59;;;;;;;;;;;21.50;69.50;;;;;;5051268;28;19921;-71
2022/05/01 11:48:25;;;;;;;;;;;21.50;73.00;;;;;;5051688;28;19921;-71
2022/05/01 11:50:52;;;;;;;;;;;21.80;69.10;;;;;;5051865;28;19929;-72
2022/05/01 11:53:19;;;;;;;;;;;22.20;68.30;;;;;;5050615;28;19986;-71
2022/05/01 12:04:21;;;;;;;;;;;20.00;71.50;;;;;;5053026;28;19983;-71
2022/05/01 12:06:47;;;;;;;;;;;20.10;71.40;;;;;;5054171;28;20280;-71
2022/05/01 12:09:18;;;;;;;;;;;19.40;73.80;;;;;;5053047;28;19928;-71
2022/05/01 12:11:47;;;;;;;;;;;19.10;75.40;;;;;;5054045;28;19947;-71
2022/05/01 12:14:13;;;;;;;;;;;19.60;72.80;;;;;;5054866;28;19925;-71
2022/05/01 12:16:40;;;;;;;;;;;20.10;73.10;;;;;;5053970;28;20015;-71
2022/05/01 12:19:06;;;;;;;;;;;21.00;73.70;;;;;;5054430;28;19935;-71
2022/05/01 12:21:33;;;;;;;;;;;21.00;72.60;;;;;;5053946;28;20078;-71
2022/05/01 12:24:02;;;;;;;;;;;21.10;71.30;;;;;;5052814;28;19921;-69
2022/05/01 12:26:29;;;;;;;;;;;21.80;68.80;;;;;;5055126;28;19927;-69
2022/05/01 12:28:55;;;;;;;;;;;21.30;69.60;;;;;;5055081;28;19916;-69
2022/05/01 12:31:20;;;;;;;;;;;21.50;72.40;;;;;;5052896;28;19966;-69
2022/05/01 12:33:52;;;;;;;;;;;21.50;67.50;;;;;;5053927;28;19921;-69
2022/05/01 12:36:25;;;;;;;;;;;21.10;69.50;;;;;;5042546;28;20338;-69
2022/05/01 12:39:01;;;;;;;;;;;20.90;70.70;;;;;;5052303;28;19928;-69
2022/05/01 12:44:11;;;;;;;;;;;20.00;70.50;;;;;;5052327;28;19928;-70
2022/05/01 12:46:39;;;;;;;;;;;19.70;72.00;;;;;;5054445;28;20288;-70
2022/05/01 12:49:05;;;;;;;;;;;19.20;72.00;;;;;;5053928;28;19927;-70
2022/05/01 12:51:41;;;;;;;;;;;19.10;71.40;;;;;;5052599;28;19946;-69
2022/05/01 12:54:10;;;;;;;;;;;18.60;72.70;;;;;;5054163;28;19921;-69
2022/05/01 12:56:36;;;;;;;;;;;18.50;73.80;;;;;;5052744;28;19924;-69
2022/05/01 12:59:21;;;;;;;;;;;18.50;73.80;;;;;;5052881;28;19924;-70
2022/05/01 13:01:47;;;;;;;;;;;18.60;74.20;;;;;;5052871;28;19920;-69
2022/05/01 13:04:20;;;;;;;;;;;18.60;74.20;;;;;;5052933;28;20257;-69
2022/05/01 13:06:46;;;;;;;;;;;18.40;75.00;;;;;;5052681;28;19916;-69
2022/05/01 13:09:16;;;;;;;;;;;18.10;75.90;;;;;;5053444;28;20022;-69
2022/05/01 13:11:58;;;;;;;;;;;18.00;77.60;;;;;;5052764;28;19920;-69
2022/05/01 13:14:30;;;;;;;;;;;17.80;78.20;;;;;;5053429;28;19927;-69
2022/05/01 13:17:05;;;;;;;;;;;17.60;80.10;;;;;;5053347;28;19943;-72
2022/05/01 13:19:31;;;;;;;;;;;17.40;82.70;;;;;;5053552;28;19964;-72
2022/05/01 13:21:56;;;;;;;;;;;17.30;81.60;;;;;;5054554;28;20010;-72
2022/05/01 13:24:32;;;;;;;;;;;16.90;81.60;;;;;;5053481;28;20425;-72
2022/05/01 13:27:01;;;;;;;;;;;16.80;84.00;;;;;;5052197;28;19920;-72
2022/05/01 13:29:26;;;;;;;;;;;16.50;85.10;;;;;;5052758;28;19990;-72
2022/05/01 13:31:52;;;;;;;;;;;16.40;85.30;;;;;;5054024;28;20375;-72
2022/05/01 13:34:20;;;;;;;;;;;16.40;86.30;;;;;;5051757;28;20448;-71
2022/05/01 13:36:46;;;;;;;;;;;16.50;86.90;;;;;;5052424;28;19920;-73
2022/05/01 13:39:12;;;;;;;;;;;16.30;90.00;;;;;;5054832;28;20053;-75
2022/05/01 13:44:44;;;;;;;;;;;16.70;88.90;;;;;;5051977;28;19921;-78
2022/05/01 13:47:10;;;;;;;;;;;16.60;89.90;;;;;;5055430;28;19920;-75
2022/05/01 13:49:36;;;;;;;;;;;16.80;89.20;;;;;;5057523;28;19974;-73
2022/05/01 13:52:03;;;;;;;;;;;16.80;87.90;;;;;;5071632;28;20018;-74
2022/05/01 13:54:29;;;;;;;;;;;16.70;88.20;;;;;;5066529;28;19921;-74
2022/05/01 13:56:54;;;;;;;;;;;16.90;88.20;;;;;;5052569;28;19979;-73
2022/05/01 13:59:20;;;;;;;;;;;17.30;90.00;;;;;;5051635;28;19960;-73
2022/05/01 14:01:46;;;;;;;;;;;17.50;88.50;;;;;;5051380;28;19951;-71
2022/05/01 14:04:12;;;;;;;;;;;17.60;87.10;;;;;;5051258;28;19920;-74
2022/05/01 14:06:38;;;;;;;;;;;17.80;87.10;;;;;;5051195;28;19929;-75
2022/05/01 14:09:04;;;;;;;;;;;17.90;87.20;;;;;;5050828;28;20300;-74
2022/05/01 14:11:30;;;;;;;;;;;18.20;85.70;;;;;;5048818;28;19920;-77
2022/05/01 14:13:59;;;;;;;;;;;18.10;84.40;;;;;;5039375;28;19957;-78
2022/05/01 14:16:25;;;;;;;;;;;18.10;84.70;;;;;;5051870;28;19921;-74
2022/05/01 14:18:51;;;;;;;;;;;18.20;86.30;;;;;;5051309;28;19927;-77
2022/05/01 14:21:17;;;;;;;;;;;18.50;87.70;;;;;;5051958;28;19925;-73
2022/05/01 14:23:43;;;;;;;;;;;18.50;85.10;;;;;;5051277;28;20326;-73
2022/05/01 14:26:09;;;;;;;;;;;18.70;85.70;;;;;;5059774;28;20007;-78
2022/05/01 14:28:38;;;;;;;;;;;18.90;88.40;;;;;;5055516;28;20016;-69
2022/05/01 14:31:07;;;;;;;;;;;19.50;83.50;;;;;;5051878;28;20004;-73
2022/05/01 14:33:54;;;;;;;;;;;19.10;84.20;;;;;;5067086;28;19925;-72
2022/05/01 14:36:21;;;;;;;;;;;19.10;83.10;;;;;;5070096;28;19916;-74
2022/05/01 14:39:06;;;;;;;;;;;19.20;82.40;;;;;;5070156;28;20276;-73
2022/05/01 14:41:40;;;;;;;;;;;19.20;82.50;;;;;;5068915;28;19923;-73
2022/05/01 14:44:07;;;;;;;;;;;18.50;82.40;;;;;;5050009;28;19921;-74
2022/05/01 14:46:39;;;;;;;;;;;18.10;84.10;;;;;;5051153;28;19990;-72
2022/05/01 14:49:12;;;;;;;;;;;17.90;85.60;;;;;;5051264;28;19931;-74
2022/05/01 14:51:39;;;;;;;;;;;18.00;86.00;;;;;;5051556;28;19921;-74
2022/05/01 14:54:04;;;;;;;;;;;18.00;87.20;;;;;;5052356;28;19921;-74
2022/05/01 14:56:30;;;;;;;;;;;18.00;88.80;;;;;;5047745;28;19916;-72
2022/05/01 15:07:13;;;;;;;;;;;17.50;89.20;;;;;;5048178;28;19927;-72
2022/05/01 15:09:38;;;;;;;;;;;17.20;90.00;;;;;;5051441;28;19921;-71
2022/05/01 15:12:04;;;;;;;;;;;17.10;90.10;;;;;;5051159;28;19928;-71
2022/05/01 15:14:30;;;;;;;;;;;17.00;91.40;;;;;;5051136;28;19921;-75
2022/05/01 15:17:02;;;;;;;;;;;17.00;92.00;;;;;;5051590;28;19943;-75
2022/05/01 15:19:37;;;;;;;;;;;16.60;92.10;;;;;;5050397;28;20013;-74